createdAt,value
2018-11-04T00:00:36.897Z,1.70
2018-11-04T00:03:19.827Z,2.00
2018-11-04T00:06:02.015Z,1.50
2018-11-04T00:08:45.056Z,2.20
2018-11-04T00:11:27.954Z,1.90
2018-11-04T00:14:10.984Z,1.87
2018-11-04T00:16:54.084Z,1.40
2018-11-04T00:19:37.207Z,1.80
2018-11-04T00:22:20.214Z,1.53
2018-11-04T00:25:02.524Z,1.80
2018-11-04T00:27:46.098Z,2.40
2018-11-04T00:30:28.475Z,1.97
2018-11-04T00:33:11.300Z,2.20
2018-11-04T00:35:54.087Z,1.70
2018-11-04T00:38:36.861Z,1.90
2018-11-04T00:41:20.420Z,2.30
2018-11-04T00:44:02.712Z,1.70
2018-11-04T00:46:45.388Z,2.10
2018-11-04T00:49:27.999Z,2.27
2018-11-04T00:52:10.879Z,1.73
2018-11-04T00:54:53.783Z,1.83
2018-11-04T00:57:36.312Z,2.10
2018-11-04T01:00:20.090Z,1.50
2018-11-04T01:03:02.367Z,1.90
2018-11-04T01:05:44.562Z,1.80
2018-11-04T01:08:28.214Z,1.93
2018-11-04T01:11:10.380Z,2.30
2018-11-04T01:13:53.366Z,1.90
2018-11-04T01:16:36.172Z,2.10
2018-11-04T01:19:18.974Z,1.90
2018-11-04T01:22:01.716Z,2.10
2018-11-04T01:24:44.423Z,1.87
2018-11-04T01:27:27.220Z,2.13
2018-11-04T01:30:12.447Z,1.87
2018-11-04T01:32:54.687Z,1.93
2018-11-04T01:35:38.038Z,1.87
2018-11-04T01:38:20.314Z,2.03
2018-11-04T01:41:03.090Z,1.60
2018-11-04T01:43:45.915Z,1.73
2018-11-04T01:46:28.644Z,1.60
2018-11-04T01:49:11.630Z,1.97
2018-11-04T01:51:54.277Z,1.90
2018-11-04T01:54:37.187Z,1.90
2018-11-04T01:57:19.975Z,1.90
2018-11-04T02:00:02.738Z,1.70
2018-11-04T02:02:47.283Z,2.10
2018-11-04T02:05:30.067Z,1.77
2018-11-04T02:08:12.991Z,2.20
2018-11-04T02:10:55.619Z,1.60
2018-11-04T02:13:38.200Z,1.77
2018-11-04T02:16:21.046Z,1.50
2018-11-04T02:19:04.275Z,2.30
2018-11-04T02:21:47.447Z,1.77
2018-11-04T02:24:30.090Z,2.10
2018-11-04T02:27:12.839Z,1.60
2018-11-04T02:29:56.307Z,1.83
2018-11-04T02:32:38.667Z,1.67
2018-11-04T02:35:21.127Z,1.60
2018-11-04T02:38:03.864Z,1.70
2018-11-04T02:40:46.771Z,1.90
2018-11-04T02:43:29.537Z,1.90
2018-11-04T02:46:12.331Z,1.60
2018-11-04T02:48:55.107Z,2.23
2018-11-04T02:51:37.574Z,2.40
2018-11-04T02:54:20.769Z,1.90
2018-11-04T02:57:03.742Z,1.43
2018-11-04T02:59:46.619Z,2.23
2018-11-04T03:02:29.576Z,1.90
2018-11-04T03:05:12.888Z,2.10
2018-11-04T03:07:55.103Z,2.30
2018-11-04T03:10:37.828Z,2.17
2018-11-04T03:13:20.886Z,1.90
2018-11-04T03:16:03.640Z,1.87
2018-11-04T03:18:46.494Z,1.83
2018-11-04T03:21:29.357Z,1.60
2018-11-04T03:24:12.424Z,2.13
2018-11-04T03:26:55.057Z,2.00
2018-11-04T03:29:37.794Z,1.50
2018-11-04T03:32:20.786Z,2.17
2018-11-04T03:35:03.753Z,1.77
2018-11-04T03:37:46.157Z,2.00
2018-11-04T03:40:28.918Z,2.40
2018-11-04T03:43:11.610Z,2.07
2018-11-04T03:45:54.414Z,1.70
2018-11-04T03:48:37.466Z,1.80
2018-11-04T03:51:20.531Z,1.80
2018-11-04T03:54:03.454Z,1.50
2018-11-04T03:56:46.279Z,1.77
2018-11-04T03:59:29.714Z,1.80
2018-11-04T04:02:11.970Z,1.70
2018-11-04T04:04:55.011Z,2.40
2018-11-04T04:07:37.890Z,1.80
2018-11-04T04:10:21.028Z,2.00
2018-11-04T04:13:03.828Z,1.63
2018-11-04T04:15:46.491Z,1.90
2018-11-04T04:18:29.898Z,2.23
2018-11-04T04:21:13.013Z,2.10
2018-11-04T04:23:56.010Z,2.07
2018-11-04T04:26:38.811Z,2.10
2018-11-04T04:29:21.196Z,2.33
2018-11-04T04:32:04.358Z,1.60
2018-11-04T04:34:47.268Z,3.30
2018-11-04T04:37:30.061Z,1.87
2018-11-04T04:40:13.128Z,1.60
2018-11-04T04:42:55.847Z,2.13
2018-11-04T04:45:38.585Z,1.97
2018-11-04T04:48:21.819Z,2.10
2018-11-04T04:51:04.912Z,2.63
2018-11-04T04:53:48.147Z,2.30
2018-11-04T04:56:30.573Z,3.30
2018-11-04T04:59:13.214Z,2.43
2018-11-04T05:01:56.944Z,2.47
2018-11-04T05:04:39.507Z,3.00
2018-11-04T05:07:22.483Z,2.50
2018-11-04T05:10:05.862Z,2.70
2018-11-04T05:12:48.682Z,2.67
2018-11-04T05:15:31.654Z,2.80
2018-11-04T05:18:15.116Z,2.30
2018-11-04T05:20:57.650Z,2.53
2018-11-04T05:23:40.277Z,2.50
2018-11-04T05:26:23.296Z,2.33
2018-11-04T05:29:06.416Z,3.00
2018-11-04T05:31:49.018Z,2.23
2018-11-04T05:34:31.830Z,2.63
2018-11-04T05:37:14.574Z,2.40
2018-11-04T05:39:57.342Z,2.60
2018-11-04T05:42:39.866Z,2.60
2018-11-04T05:45:22.742Z,2.70
2018-11-04T05:48:06.122Z,2.50
2018-11-04T05:50:48.539Z,2.67
2018-11-04T05:53:31.465Z,2.20
2018-11-04T05:56:14.078Z,2.50
2018-11-04T05:58:57.195Z,2.33
2018-11-04T06:01:39.750Z,2.30
2018-11-04T06:04:22.605Z,2.53
2018-11-04T06:07:05.504Z,1.97
2018-11-04T06:09:47.819Z,3.00
2018-11-04T06:12:30.385Z,4.70
2018-11-04T06:15:13.412Z,4.57
2018-11-04T06:17:55.946Z,7.50
2018-11-04T06:20:38.990Z,6.53
2018-11-04T06:23:22.437Z,4.63
2018-11-04T06:26:04.882Z,4.60
2018-11-04T06:28:47.830Z,4.47
2018-11-04T06:31:30.898Z,5.60
2018-11-04T06:34:13.632Z,9.10
2018-11-04T06:36:56.447Z,8.63
2018-11-04T06:39:39.606Z,4.37
2018-11-04T06:42:22.271Z,8.63
2018-11-04T06:45:05.673Z,10.80
2018-11-04T06:47:48.685Z,15.70
2018-11-04T06:50:31.603Z,21.60
2018-11-04T06:53:15.358Z,7.30
2018-11-04T06:55:57.858Z,5.83
2018-11-04T06:58:41.010Z,7.90
2018-11-04T07:01:23.775Z,5.93
2018-11-04T07:04:20.700Z,2.30
2018-11-04T07:07:03.071Z,4.57
2018-11-04T07:09:45.947Z,12.47
2018-11-04T07:12:28.622Z,7.40
2018-11-04T07:15:11.375Z,5.53
2018-11-04T07:17:54.052Z,4.70
2018-11-04T07:20:36.427Z,2.43
2018-11-04T07:23:19.243Z,4.20
2018-11-04T07:26:02.068Z,8.33
2018-11-04T07:28:44.957Z,8.57
2018-11-04T07:31:27.754Z,7.13
2018-11-04T07:34:10.291Z,5.13
2018-11-04T07:36:53.154Z,4.27
2018-11-04T07:39:37.093Z,5.93
2018-11-04T07:42:19.708Z,5.30
2018-11-04T07:45:02.624Z,3.97
2018-11-04T07:47:45.581Z,4.27
2018-11-04T07:50:28.443Z,3.70
2018-11-04T07:53:11.220Z,6.50
2018-11-04T07:55:54.092Z,5.17
2018-11-04T07:58:37.199Z,4.87
2018-11-04T08:01:19.843Z,3.43
2018-11-04T08:04:02.585Z,2.50
2018-11-04T08:06:45.713Z,2.80
2018-11-04T08:09:28.241Z,2.57
2018-11-04T08:12:10.645Z,2.87
2018-11-04T08:14:53.458Z,2.00
2018-11-04T08:17:36.962Z,2.60
2018-11-04T08:20:19.103Z,1.97
2018-11-04T08:23:01.978Z,2.10
2018-11-04T08:25:44.727Z,2.20
2018-11-04T08:28:27.782Z,2.10
2018-11-04T08:31:11.267Z,1.50
2018-11-04T08:33:53.794Z,2.40
2018-11-04T08:36:36.881Z,3.60
2018-11-04T08:39:20.029Z,2.10
2018-11-04T08:42:02.794Z,2.43
2018-11-04T08:44:45.450Z,1.47
2018-11-04T08:47:28.139Z,1.50
2018-11-04T08:50:11.525Z,2.10
2018-11-04T08:52:53.871Z,2.10
2018-11-04T08:55:36.960Z,2.80
2018-11-04T08:58:20.322Z,2.23
2018-11-04T09:01:03.186Z,2.50
2018-11-04T09:03:45.475Z,2.63
2018-11-04T09:06:28.590Z,2.30
2018-11-04T09:09:11.597Z,2.70
2018-11-04T09:11:54.522Z,2.50
2018-11-04T09:14:37.491Z,3.00
2018-11-04T09:17:20.595Z,2.97
2018-11-04T09:20:03.683Z,2.47
2018-11-04T09:22:46.635Z,2.73
2018-11-04T09:25:29.462Z,2.40
2018-11-04T09:28:12.230Z,2.97
2018-11-04T09:30:55.477Z,2.93
2018-11-04T09:33:38.174Z,3.60
2018-11-04T09:36:20.684Z,3.87
2018-11-04T09:39:05.051Z,3.07
2018-11-04T09:41:47.976Z,3.57
2018-11-04T09:44:30.717Z,3.90
2018-11-04T09:47:13.111Z,3.90
2018-11-04T09:49:56.268Z,3.70
2018-11-04T09:52:39.829Z,3.83
2018-11-04T09:55:22.103Z,3.70
2018-11-04T09:58:04.927Z,3.97
2018-11-04T10:00:47.794Z,3.93
2018-11-04T10:03:30.614Z,3.27
2018-11-04T10:06:14.219Z,3.80
2018-11-04T10:08:56.470Z,3.80
2018-11-04T10:11:39.843Z,4.40
2018-11-04T10:14:22.538Z,3.70
2018-11-04T10:17:05.362Z,3.80
2018-11-04T10:19:48.660Z,3.10
2018-11-04T10:22:31.274Z,3.37
2018-11-04T10:25:14.441Z,3.83
2018-11-04T10:27:57.066Z,3.15
2018-11-04T10:30:39.945Z,3.87
2018-11-04T10:33:23.118Z,3.60
2018-11-04T10:36:06.327Z,4.50
2018-11-04T10:38:48.792Z,4.17
2018-11-04T10:41:31.013Z,4.50
2018-11-04T10:44:13.818Z,4.10
2018-11-04T10:46:57.085Z,4.80
2018-11-04T10:49:40.273Z,4.75
2018-11-04T10:52:22.959Z,4.58
2018-11-04T10:55:06.717Z,4.87
2018-11-04T10:57:49.535Z,4.70
2018-11-04T11:00:37.668Z,4.70
2018-11-04T11:03:20.417Z,5.07
2018-11-04T11:06:03.088Z,4.30
2018-11-04T11:08:46.175Z,3.70
2018-11-04T11:11:28.674Z,4.73
2018-11-04T11:14:11.446Z,6.08
2018-11-04T11:16:55.719Z,4.87
2018-11-04T11:19:38.569Z,4.30
2018-11-04T11:22:21.759Z,3.87
2018-11-04T11:25:04.579Z,4.20
2018-11-04T11:27:47.846Z,3.80
2018-11-04T11:30:31.290Z,4.47
2018-11-04T11:33:13.952Z,4.25
2018-11-04T11:35:57.399Z,3.00
2018-11-04T11:38:40.519Z,3.80
2018-11-04T11:41:23.325Z,4.00
2018-11-04T11:44:06.206Z,3.03
2018-11-04T11:46:48.630Z,3.40
2018-11-04T11:49:31.886Z,3.20
2018-11-04T11:52:15.095Z,3.10
2018-11-04T11:54:57.948Z,3.13
2018-11-04T11:57:40.698Z,3.03
2018-11-04T12:00:23.606Z,3.70
2018-11-04T12:03:06.362Z,3.40
2018-11-04T12:05:49.229Z,2.93
2018-11-04T12:08:32.160Z,3.70
2018-11-04T12:11:15.022Z,3.30
2018-11-04T12:13:58.745Z,3.90
2018-11-04T12:16:42.071Z,2.67
2018-11-04T12:19:25.159Z,2.60
2018-11-04T12:22:08.098Z,2.67
2018-11-04T12:24:50.900Z,2.90
2018-11-04T12:27:33.539Z,3.00
2018-11-04T12:30:16.493Z,2.60
2018-11-04T12:32:59.283Z,2.80
2018-11-04T12:35:42.566Z,2.67
2018-11-04T12:38:25.510Z,2.90
2018-11-04T12:41:08.371Z,3.00
2018-11-04T12:43:51.769Z,2.50
2018-11-04T12:46:34.686Z,2.43
2018-11-04T12:49:17.692Z,2.50
2018-11-04T12:52:01.057Z,2.70
2018-11-04T12:54:44.559Z,2.67
2018-11-04T12:57:27.266Z,2.50
2018-11-04T13:00:16.231Z,2.37
2018-11-04T13:03:01.153Z,7.67
2018-11-04T13:05:45.058Z,3.37
2018-11-04T13:08:27.669Z,2.97
2018-11-04T13:11:10.695Z,2.60
2018-11-04T13:13:53.234Z,3.03
2018-11-04T13:16:36.395Z,2.63
2018-11-04T13:19:19.675Z,2.30
2018-11-04T13:22:03.022Z,3.20
2018-11-04T13:24:45.830Z,2.07
2018-11-04T13:27:28.494Z,2.30
2018-11-04T13:30:12.764Z,2.00
2018-11-04T13:32:55.800Z,2.37
2018-11-04T13:35:38.785Z,2.97
2018-11-04T13:38:21.382Z,3.20
2018-11-04T13:41:05.042Z,3.13
2018-11-04T13:43:48.163Z,3.37
2018-11-04T13:46:30.525Z,3.83
2018-11-04T13:49:14.246Z,3.77
2018-11-04T13:51:57.344Z,3.70
2018-11-04T13:54:40.469Z,3.03
2018-11-04T13:57:23.203Z,3.30
2018-11-04T14:00:06.971Z,3.03
2018-11-04T14:02:50.307Z,3.60
2018-11-04T14:05:33.539Z,3.43
2018-11-04T14:08:16.121Z,3.33
2018-11-04T14:10:59.027Z,3.23
2018-11-04T14:13:41.946Z,3.20
2018-11-04T14:16:24.355Z,3.43
2018-11-04T14:19:07.241Z,3.97
2018-11-04T14:21:49.500Z,3.87
2018-11-04T14:24:32.164Z,4.00
2018-11-04T14:27:15.135Z,4.20
2018-11-04T14:29:57.511Z,3.47
2018-11-04T14:32:41.250Z,5.97
2018-11-04T14:35:24.216Z,3.60
2018-11-04T14:38:06.863Z,3.70
2018-11-04T14:40:49.506Z,4.53
2018-11-04T14:43:32.286Z,4.37
2018-11-04T14:46:15.295Z,4.40
2018-11-04T14:48:58.124Z,3.83
2018-11-04T14:51:41.485Z,3.70
2018-11-04T14:54:25.058Z,2.73
2018-11-04T14:57:08.210Z,3.57
2018-11-04T14:59:51.832Z,2.97
2018-11-04T15:02:34.404Z,3.27
2018-11-04T15:05:18.243Z,3.50
2018-11-04T15:08:01.238Z,3.57
2018-11-04T15:10:44.554Z,3.20
2018-11-04T15:13:28.313Z,4.20
2018-11-04T15:16:12.084Z,3.63
2018-11-04T15:18:55.634Z,3.40
2018-11-04T15:21:38.823Z,3.30
2018-11-04T15:24:29.640Z,3.70
2018-11-04T15:27:12.752Z,3.40
2018-11-04T15:29:57.698Z,3.40
2018-11-04T15:32:40.790Z,3.23
2018-11-04T15:35:24.911Z,3.00
2018-11-04T15:38:07.950Z,3.67
2018-11-04T15:40:51.638Z,12.60
2018-11-04T15:43:34.631Z,20.70
2018-11-04T15:46:17.978Z,10.53
2018-11-04T15:49:00.639Z,4.57
2018-11-04T15:52:14.681Z,3.03
2018-11-04T15:55:13.344Z,3.10
2018-11-04T15:57:58.777Z,2.40
2018-11-04T16:00:50.345Z,2.90
2018-11-04T16:03:39.321Z,3.20
2018-11-04T16:06:22.599Z,3.30
2018-11-04T16:09:07.998Z,2.80
2018-11-04T16:11:51.489Z,2.70
2018-11-04T16:19:04.245Z,2.90
2018-11-04T16:21:46.778Z,5.83
2018-11-04T16:24:31.628Z,5.33
2018-11-04T16:27:15.175Z,7.53
2018-11-04T16:29:58.802Z,6.00
2018-11-04T16:32:43.069Z,4.20
2018-11-04T16:35:27.323Z,3.80
2018-11-04T16:38:11.428Z,3.57
2018-11-04T16:40:54.954Z,3.33
2018-11-04T16:43:37.868Z,3.13
2018-11-04T16:46:23.812Z,3.47
2018-11-04T16:49:08.599Z,2.87
2018-11-04T16:51:51.875Z,3.57
2018-11-04T16:54:35.459Z,3.80
2018-11-04T16:57:19.463Z,3.27
2018-11-04T17:00:03.024Z,3.87
2018-11-04T17:02:46.247Z,3.53
2018-11-04T17:05:29.099Z,3.40
2018-11-04T17:08:12.550Z,4.20
2018-11-04T17:10:55.911Z,3.10
2018-11-04T17:13:39.648Z,3.10
2018-11-04T17:16:23.143Z,3.67
2018-11-04T17:19:07.460Z,3.80
2018-11-04T17:21:50.666Z,3.43
2018-11-04T17:24:34.488Z,3.10
2018-11-04T17:27:17.578Z,2.80
2018-11-04T17:30:01.914Z,2.93
2018-11-04T17:32:45.008Z,3.03
2018-11-04T17:35:28.458Z,3.13
2018-11-04T17:38:12.174Z,3.60
2018-11-04T17:40:54.907Z,3.30
2018-11-04T17:43:38.383Z,2.50
2018-11-04T17:46:21.190Z,4.20
2018-11-04T17:49:05.297Z,3.60
2018-11-04T17:51:48.958Z,2.50
2018-11-04T17:54:32.625Z,2.20
2018-11-04T17:57:17.963Z,2.67
2018-11-04T18:00:01.671Z,2.00
2018-11-04T18:02:45.051Z,2.20
2018-11-04T18:05:28.357Z,2.23
2018-11-04T18:08:16.054Z,2.13
2018-11-04T18:10:59.581Z,2.10
2018-11-04T18:13:42.957Z,2.83
2018-11-04T18:16:27.369Z,2.20
2018-11-04T18:19:10.331Z,2.07
2018-11-04T18:21:53.993Z,2.07
2018-11-04T18:24:37.059Z,2.10
2018-11-04T18:27:21.494Z,1.60
2018-11-04T18:30:09.651Z,2.10
2018-11-04T18:32:58.250Z,2.23
2018-11-04T18:35:48.376Z,1.97
2018-11-04T18:38:36.585Z,1.50
2018-11-04T18:41:20.820Z,2.37
2018-11-04T18:44:15.361Z,3.63
2018-11-04T18:46:59.053Z,2.63
2018-11-04T18:49:50.386Z,2.50
2018-11-04T18:52:37.622Z,2.10
2018-11-04T18:55:22.663Z,2.20
2018-11-04T18:58:06.179Z,2.70
2018-11-04T19:00:51.443Z,2.40
2018-11-04T19:03:36.900Z,2.00
2018-11-04T19:06:21.135Z,2.10
2018-11-04T19:09:06.276Z,2.50
2018-11-04T19:11:49.485Z,2.73
2018-11-04T19:14:33.925Z,3.10
2018-11-04T19:17:20.974Z,1.80
2018-11-04T19:20:05.461Z,2.13
2018-11-04T19:22:53.240Z,2.23
2018-11-04T19:25:38.165Z,2.00
2018-11-04T19:28:22.057Z,2.30
2018-11-04T19:31:08.283Z,2.23
2018-11-04T19:33:52.638Z,2.20
2018-11-04T19:36:35.995Z,2.70
2018-11-04T19:39:19.833Z,2.40
2018-11-04T19:42:03.675Z,3.00
2018-11-04T19:44:46.821Z,2.67
2018-11-04T19:47:32.345Z,2.27
2018-11-04T19:50:16.759Z,2.50
2018-11-04T19:53:00.064Z,2.40
2018-11-04T19:55:44.374Z,2.40
2018-11-04T19:58:32.197Z,2.27
2018-11-04T20:01:18.032Z,2.53
2018-11-04T20:04:02.405Z,2.70
2018-11-04T20:06:48.630Z,3.63
2018-11-04T20:09:32.519Z,3.30
2018-11-04T20:12:21.152Z,2.57
2018-11-04T20:15:05.638Z,2.40
2018-11-04T20:17:50.325Z,2.77
2018-11-04T20:20:34.188Z,2.40
2018-11-04T20:23:18.455Z,2.73
2018-11-04T20:26:07.383Z,2.80
2018-11-04T20:28:52.021Z,2.97
2018-11-04T20:31:42.427Z,2.93
2018-11-04T20:34:27.338Z,3.27
2018-11-04T20:37:11.402Z,3.87
2018-11-04T20:40:00.135Z,4.87
2018-11-04T20:42:44.694Z,8.50
2018-11-04T20:45:29.944Z,4.20
2018-11-04T20:48:19.981Z,5.17
2018-11-04T20:51:06.947Z,6.80
2018-11-04T20:53:50.919Z,8.37
2018-11-04T20:56:39.359Z,9.40
2018-11-04T20:59:24.228Z,7.60
2018-11-04T21:02:07.945Z,11.30
2018-11-04T21:04:51.766Z,6.80
2018-11-04T21:07:35.034Z,7.33
2018-11-04T21:10:19.521Z,6.83
2018-11-04T21:13:04.942Z,7.00
2018-11-04T21:15:57.831Z,10.33
2018-11-04T21:18:45.179Z,5.20
2018-11-04T21:21:29.218Z,4.40
2018-11-04T21:24:12.915Z,3.23
2018-11-04T21:26:56.918Z,4.50
2018-11-04T21:29:41.266Z,3.70
2018-11-04T21:32:26.438Z,2.43
2018-11-04T21:35:10.091Z,3.20
2018-11-04T21:37:53.580Z,4.47
2018-11-04T21:40:37.389Z,2.43
2018-11-04T21:43:21.151Z,2.63
2018-11-04T21:46:06.242Z,2.50
2018-11-04T21:48:50.783Z,2.83
2018-11-04T21:51:34.480Z,2.67
2018-11-04T21:54:18.674Z,2.20
2018-11-04T21:57:02.596Z,2.70
2018-11-04T21:59:46.803Z,2.60
2018-11-04T22:02:30.335Z,2.40
2018-11-04T22:05:14.009Z,3.07
2018-11-04T22:07:57.788Z,3.73
2018-11-04T22:10:40.833Z,2.90
2018-11-04T22:13:26.917Z,2.33
2018-11-04T22:16:10.337Z,1.90
2018-11-04T22:18:54.510Z,2.90
2018-11-04T22:21:37.721Z,3.13
2018-11-04T22:24:21.788Z,2.70
2018-11-04T22:27:07.781Z,2.40
2018-11-04T22:29:51.726Z,2.27
2018-11-04T22:32:35.978Z,2.00
2018-11-04T22:35:19.394Z,2.20
2018-11-04T22:38:03.239Z,1.87
2018-11-04T22:40:45.982Z,1.93
2018-11-04T22:43:30.081Z,2.10
2018-11-04T22:46:15.526Z,2.30
2018-11-04T22:48:59.633Z,1.70
2018-11-04T22:51:43.190Z,1.60
2018-11-04T22:54:26.831Z,1.77
2018-11-04T22:57:10.505Z,1.63
2018-11-04T22:59:54.501Z,1.80
2018-11-04T23:02:37.922Z,2.10
2018-11-04T23:05:28.582Z,2.00
2018-11-04T23:08:13.474Z,2.30
2018-11-04T23:10:57.087Z,1.87
2018-11-04T23:13:40.386Z,1.87
2018-11-04T23:16:23.880Z,1.57
2018-11-04T23:19:06.632Z,2.07
2018-11-04T23:21:50.334Z,1.40
2018-11-04T23:24:33.396Z,1.70
2018-11-04T23:27:18.019Z,1.30
2018-11-04T23:30:01.205Z,1.70
2018-11-04T23:32:44.996Z,1.40
2018-11-04T23:35:27.859Z,1.50
2018-11-04T23:38:10.886Z,1.50
2018-11-04T23:40:55.947Z,2.00
2018-11-04T23:43:40.559Z,1.87
2018-11-04T23:46:24.785Z,1.40
2018-11-04T23:49:08.325Z,1.80
2018-11-04T23:51:51.958Z,1.60
2018-11-04T23:54:34.980Z,1.37
2018-11-04T23:57:18.243Z,1.30
